x

Gulf Of Maine - 78 Nm East Of Portsmouth, Nh (44005) Wave Buoy

10:50 - Wed 28th Sep 2016 All times are EDT. -4 hours from GMT.

  • Sig Wave height 7.2ft
  • Swell Direction
  • Peak Period 7s
  • Average Period 5s
  • Wind
    25mph, 31mph gusts
  • Sea Temp 58°f
  • Luft Temp 57°f
  • Sea Pressure 1027.2mb
  • Gulf Of Maine - 78 Nm East Of Portsmouth, Nh
  • Gulf Of Maine - 78 Nm East Of Portsmouth, Nh

More Historic Weather Station data

Upgrade to MSW Pro to gain access to the past 30 days of data for over 8000 Wavebouys and Weather Stations around the globe.

Join Pro

Comparision Forecast

View Surf forecast
   
Mi 09/28 10:50 7ft 7s 5s 25 31 mph 1027.2mb 58f 57f
9:50 8ft 8s 6s 27 31 mph 1026.6mb 58f 57f
8:50 7.5ft 7s 5s 27 31 mph 1026.2mb 58f 58f
7:50 6.5ft 6s 5s 27 34 mph 1025.6mb 58f 57f
6:50 7.5ft 7s 5s 27 31 mph 1025.3mb 58f 57f
5:50 7.5ft 7s 5s 27 31 mph 1025.3mb 58f 57f
4:50 7ft 6s 5s 29 34 mph 1024.5mb 58f 56f
3:50 6.5ft 6s 5s 27 31 mph 1024.5mb 59f 56f
2:50 6.5ft 7s 5s 27 31 mph 1024.1mb 59f 56f
1:50 6ft 6s 5s 25 29 mph 1024mb 59f 56f
12:50 6ft 7s 5s 25 29 mph 1023.9mb 59f 55f
11:50 7ft 7s 5s 25 29 mph 1024mb 59f 54f
10:50 6.5ft 6s 5s 25 31 mph 1023.9mb 59f 54f
9:50 6.5ft 7s 5s 25 29 mph 1023.9mb 59f 54f
8:50 6ft 6s 5s 25 29 mph 1023mb 59f 55f
7:50 6ft 6s 5s 25 29 mph 1022.3mb 59f 55f
6:50 6ft 6s 5s 25 29 mph 1021.5mb 59f 55f
5:50 6ft 6s 5s 22 27 mph 1020.8mb 59f 55f
4:50 5.5ft 8s 5s 20 27 mph 1020.5mb 59f 55f
3:50 6ft 8s 5s 22 27 mph 1019.7mb 59f 55f
2:50 5ft 8s 5s 22 27 mph 1019.5mb 59f 55f
1:50 5ft 8s 5s 22 27 mph 1018.5mb 59f 57f
12:50 4ft 8s 5s 20 25 mph 1018mb 59f 58f
Di 09/27 11:50 3.5ft 8s 6s 18 22 mph 1017.8mb 59f 58f
10:50 3.5ft 6s 6s 13 16 mph 1016.7mb 59f 58f
9:50 3ft 6s 5s 11 13 mph 1016.2mb 59f 59f
8:50 3.5ft 6s 5s 7 9 mph 1015.8mb 60f 59f
7:50 3.5ft 6s 5s 9
mph
1014.7mb 60f 59f
6:50 3.5ft 6s 6s 7 9 mph 1014.1mb 60f 59f
5:50 3.5ft 6s 6s 7 9 mph 1013.7mb 60f 58f
4:50 3.5ft 6s 6s 4 7 mph 1013.3mb 60f 58f
3:50 3.5ft 6s 5s 4
mph
1012.3mb 60f 58f
2:50 3ft 6s 5s 7
mph
1011.8mb 60f 58f
1:50 2.5ft 6s 5s 7
mph
1011.6mb 59f 58f
12:50 2.5ft 6s 5s 4 7 mph 1011.6mb 59f 60f
11:50 3ft 6s 5s 4 7 mph 1012mb 59f 60f
10:50 3.5ft 6s 5s 7 9 mph 1011.9mb 59f 61f
9:50 4ft 6s 5s 11
mph
1012.7mb 59f 61f
8:50 4.5ft 6s 5s 16 20 mph 1012.7mb 59f 61f
7:50 4.5ft 6s 5s 16 18 mph 1012.9mb 59f 61f
6:50 4.5ft 6s 5s 16 20 mph 1013.1mb 59f 60f
5:50 4.5ft 6s 5s 20 22 mph 1013.2mb 59f 62f
4:50 4ft 6s 4s 18 20 mph 1013.7mb 60f 62f
3:50 4ft 6s 5s 18 20 mph 1014.3mb 60f 61f
2:50 3.5ft 5s 4s 18 20 mph 1015.2mb 60f 61f
1:50 3.5ft 5s 4s 18 20 mph 1015.8mb 60f 61f
12:50 3.5ft 4s 4s 18 22 mph 1016.5mb 60f 60f
Mo 09/26 11:50 2.5ft 4s 4s 16 20 mph 1017.2mb 60f 60f
10:50 2.5ft 3s 4s 16 18 mph 1017.4mb 60f 60f
9:50 1.6ft 3s 4s 18 22 mph 1017.9mb 60f 59f
8:50 1.3ft 14s 4s 16 20 mph 1018.1mb 60f 58f
7:50 1.3ft 11s 4s 11 13 mph 1018.7mb 60f 57f
6:50 1ft 12s 4s 11 13 mph 1019mb 60f 57f
5:50 1ft 12s 4s 11 13 mph 1019.2mb 60f 56f
4:50 1.3ft 12s 4s 11 16 mph 1019.7mb 60f 56f
3:50 1.3ft 11s 4s 13 16 mph 1020.2mb 60f 56f
2:50 1.3ft 11s 4s 9 11 mph 1020.9mb 60f 55f
1:50 1.6ft 3s 4s 4 7 mph 1021.1mb 60f 55f
12:50 1.6ft 4s 4s 4
mph
1021.7mb 60f 54f
11:50 1.6ft 4s 4s 4 7 mph 1022.4mb 60f 54f
10:50 2ft 4s 4s 7 9 mph 1022.4mb 59f 54f
9:50 2ft 4s 4s 9 11 mph 1022.4mb 59f 54f
8:50 2.5ft 4s 4s 9 13 mph 1022.2mb 59f 54f
7:50 2.5ft 4s 4s 16 18 mph 1022.1mb 59f 54f
6:50 2.5ft 4s 4s 16 18 mph 1021.8mb 59f 54f
5:50 3ft 4s 4s 16 18 mph 1021.1mb 59f 54f
4:50 3.5ft 5s 4s 16 20 mph 1020.8mb 59f 55f
3:50 3.5ft 5s 4s 18 20 mph 1020.9mb 59f 55f
2:50 3.5ft 5s 4s 18 22 mph 1021.1mb 59f 55f
1:50 3.5ft 5s 4s 20 22 mph 1021.1mb 59f 55f
12:50 4ft 5s 4s 18 22 mph 1021mb 59f 55f
So 09/25 11:50 4ft 5s 4s 20 25 mph 1020.8mb 59f 56f
10:50 4ft 5s 4s 18 22 mph 1020.7mb 60f 56f
9:50 4.5ft 5s 4s 22 25 mph 1020.2mb 60f 57f
8:50 4.5ft 5s 4s 20 25 mph 1019.7mb 60f 57f
7:50 4ft 5s 4s 20 27 mph 1019.1mb 60f 58f
6:50 4ft 5s 4s 20 27 mph 1018.3mb 60f 58f
5:50 3.5ft 5s 4s 20 25 mph 1017.4mb 60f 58f
4:50 3ft 12s 4s 13 20 mph 1017.2mb 60f 57f
3:50 3.5ft 12s 4s 18 22 mph 1017mb 60f 58f
2:50 3.5ft 13s 4s 20 22 mph 1016.9mb 60f 56f
1:50 4ft 5s 4s 18 22 mph 1017.3mb 60f 55f
12:50 4.5ft 6s 5s 22 27 mph 1017.7mb 59f 55f
11:50 5ft 6s 5s 20 27 mph 1017.6mb 60f 54f
10:50 5ft 5s 5s 25 29 mph 1017.4mb 60f 53f
9:50 4.5ft 6s 5s 25 29 mph 1017.4mb 60f 53f
8:50 5ft 5s 5s 22 27 mph 1017.3mb 60f 53f
7:50 5ft 5s 4s 25 29 mph 1017.1mb 59f 53f
6:50 4.5ft 5s 4s 22 27 mph 1017.2mb 59f 53f
5:50 5ft 5s 4s 22 29 mph 1017mb 59f 53f
4:50 4.5ft 5s 4s 25 29 mph 1016.8mb 60f 53f
3:50 5ft 6s 5s 20 25 mph 1017mb 60f 53f